createdAt,value
2022-09-15T00:02:19.922Z,19.89
2022-09-15T00:04:46.398Z,19.87
2022-09-15T00:07:12.761Z,19.83
2022-09-15T00:09:39.066Z,19.80
2022-09-15T00:12:05.534Z,19.77
2022-09-15T00:14:31.847Z,19.77
2022-09-15T00:16:58.211Z,19.75
2022-09-15T00:19:24.570Z,19.73
2022-09-15T00:21:50.889Z,19.72
2022-09-15T00:24:17.203Z,19.71
2022-09-15T00:26:44.196Z,19.70
2022-09-15T00:29:11.321Z,19.70
2022-09-15T00:31:38.353Z,19.68
2022-09-15T00:34:06.992Z,19.69
2022-09-15T00:36:33.280Z,19.70
2022-09-15T00:38:59.644Z,19.74
2022-09-15T00:41:26.002Z,19.75
2022-09-15T00:43:57.142Z,19.74
2022-09-15T00:46:27.442Z,19.76
2022-09-15T00:49:08.685Z,19.73
2022-09-15T00:51:47.008Z,19.76
2022-09-15T00:54:28.520Z,19.74
2022-09-15T00:56:58.612Z,19.74
2022-09-15T00:59:27.483Z,19.75
2022-09-15T01:02:05.710Z,19.72
2022-09-15T01:04:32.133Z,19.75
2022-09-15T01:07:03.450Z,19.72
2022-09-15T01:09:38.470Z,19.73
2022-09-15T01:12:05.077Z,19.73
2022-09-15T01:14:31.376Z,19.72
2022-09-15T01:17:08.256Z,19.70
2022-09-15T01:20:00.597Z,19.68
2022-09-15T01:23:03.880Z,19.66
2022-09-15T01:26:04.018Z,19.64
2022-09-15T01:29:06.206Z,19.64
2022-09-15T01:32:33.165Z,19.60
2022-09-15T01:35:22.730Z,19.58
2022-09-15T01:37:58.270Z,19.59
2022-09-15T01:40:29.671Z,19.57
2022-09-15T01:42:58.341Z,19.54
2022-09-15T01:45:30.415Z,19.53
2022-09-15T01:47:59.547Z,19.55
2022-09-15T01:50:34.003Z,19.50
2022-09-15T01:53:03.899Z,19.48
2022-09-15T01:55:44.199Z,19.44
2022-09-15T01:58:10.635Z,19.45
2022-09-15T02:00:42.714Z,19.41
2022-09-15T02:03:21.332Z,19.38
2022-09-15T02:06:01.868Z,19.37
2022-09-15T02:08:30.914Z,19.34
2022-09-15T02:11:09.572Z,19.31
2022-09-15T02:13:45.669Z,19.29
2022-09-15T02:16:19.845Z,19.28
2022-09-15T02:19:17.608Z,19.22
2022-09-15T02:22:13.237Z,19.21
2022-09-15T02:24:51.164Z,19.22
2022-09-15T02:27:24.052Z,19.24
2022-09-15T02:29:52.341Z,19.23
2022-09-15T02:32:23.122Z,19.22
2022-09-15T02:34:53.205Z,19.21
2022-09-15T02:37:22.875Z,19.21
2022-09-15T02:39:57.786Z,19.19
2022-09-15T02:42:26.148Z,19.19
2022-09-15T02:44:52.647Z,19.21
2022-09-15T02:47:19.412Z,19.22
2022-09-15T02:49:45.792Z,19.22
2022-09-15T02:52:12.525Z,19.21
2022-09-15T02:54:38.819Z,19.22
2022-09-15T02:57:05.474Z,19.22
2022-09-15T02:59:51.725Z,19.24
2022-09-15T03:02:20.130Z,19.26
2022-09-15T03:04:47.364Z,19.30
2022-09-15T03:07:13.747Z,19.35
2022-09-15T03:09:41.453Z,19.37
2022-09-15T03:12:07.851Z,19.35
2022-09-15T03:14:35.324Z,19.37
2022-09-15T03:17:02.780Z,19.37
2022-09-15T03:19:29.083Z,19.39
2022-09-15T03:21:55.385Z,19.39
2022-09-15T03:24:22.913Z,19.41
2022-09-15T03:26:49.706Z,19.42
2022-09-15T03:29:16.042Z,19.43
2022-09-15T03:31:42.435Z,19.44
2022-09-15T03:34:08.739Z,19.45
2022-09-15T03:36:35.107Z,19.46
2022-09-15T03:39:01.824Z,19.46
2022-09-15T03:41:29.164Z,19.48
2022-09-15T03:43:56.250Z,19.48
2022-09-15T03:46:22.535Z,19.49
2022-09-15T03:48:48.855Z,19.49
2022-09-15T03:51:15.170Z,19.49
2022-09-15T03:53:41.999Z,19.49
2022-09-15T03:56:20.119Z,19.47
2022-09-15T03:58:46.442Z,19.52
2022-09-15T04:01:13.421Z,19.54
2022-09-15T04:03:45.277Z,19.55
2022-09-15T04:06:15.071Z,19.58
2022-09-15T04:08:41.959Z,19.61
2022-09-15T04:11:10.527Z,19.62
2022-09-15T04:13:39.053Z,19.65
2022-09-15T04:16:06.575Z,19.68
2022-09-15T04:18:35.816Z,19.73
2022-09-15T04:21:05.766Z,19.72
2022-09-15T04:23:32.684Z,19.73
2022-09-15T04:26:01.015Z,19.73
2022-09-15T04:28:28.810Z,19.74
2022-09-15T04:31:04.329Z,19.75
2022-09-15T04:33:30.658Z,19.79
2022-09-15T04:36:10.157Z,19.79
2022-09-15T04:38:37.018Z,19.82
2022-09-15T04:41:04.592Z,19.85
2022-09-15T04:43:31.672Z,19.87
2022-09-15T04:45:57.959Z,19.88
2022-09-15T04:48:24.803Z,19.89
2022-09-15T04:50:51.764Z,19.92
2022-09-15T04:53:18.191Z,19.91
2022-09-15T04:55:44.645Z,19.94
2022-09-15T04:58:11.472Z,19.95
2022-09-15T05:00:43.525Z,19.97
2022-09-15T05:03:11.396Z,19.98
2022-09-15T05:05:38.198Z,19.98
2022-09-15T05:08:04.553Z,19.98
2022-09-15T05:10:30.902Z,19.98
2022-09-15T05:12:57.217Z,19.97
2022-09-15T05:15:24.104Z,19.97
2022-09-15T05:17:50.505Z,19.98
2022-09-15T05:20:17.557Z,19.98
2022-09-15T05:22:45.343Z,19.99
2022-09-15T05:25:11.686Z,20.01
2022-09-15T05:27:43.956Z,20.00
2022-09-15T05:30:35.985Z,20.03
2022-09-15T05:32:56.853Z,20.06
2022-09-15T05:35:23.546Z,20.06
2022-09-15T05:37:50.267Z,20.08
2022-09-15T05:40:16.746Z,20.08
2022-09-15T05:42:43.063Z,20.08
2022-09-15T05:45:09.997Z,20.10
2022-09-15T05:47:36.293Z,20.11
2022-09-15T05:50:02.608Z,20.12
2022-09-15T05:52:28.997Z,20.14
2022-09-15T05:54:58.950Z,20.14
2022-09-15T05:57:25.741Z,20.16
2022-09-15T05:59:52.043Z,20.16
2022-09-15T06:02:18.402Z,20.21
2022-09-15T06:04:44.763Z,20.22
2022-09-15T06:07:11.181Z,20.24
2022-09-15T06:09:38.006Z,20.27
2022-09-15T06:12:04.840Z,20.29
2022-09-15T06:14:31.129Z,20.32
2022-09-15T06:16:57.413Z,20.36
2022-09-15T06:23:10.585Z,20.45
2022-09-15T06:25:36.962Z,20.47
2022-09-15T06:28:03.263Z,20.48
2022-09-15T06:30:29.610Z,20.48
2022-09-15T06:32:55.918Z,20.50
2022-09-15T06:35:22.229Z,20.51
2022-09-15T06:37:48.530Z,20.53
2022-09-15T06:40:14.911Z,20.54
2022-09-15T06:42:41.286Z,20.54
2022-09-15T06:45:08.088Z,20.59
2022-09-15T06:47:34.397Z,20.60
2022-09-15T06:50:01.091Z,20.63
2022-09-15T06:52:27.569Z,20.65
2022-09-15T06:54:53.864Z,20.69
2022-09-15T06:57:20.310Z,20.72
2022-09-15T06:59:46.654Z,20.74
2022-09-15T07:02:13.051Z,20.76
2022-09-15T07:04:39.506Z,20.78
2022-09-15T07:07:05.783Z,20.79
2022-09-15T07:09:32.117Z,20.81
2022-09-15T07:11:58.690Z,20.81
2022-09-15T07:14:24.992Z,20.83
2022-09-15T07:16:51.358Z,20.85
2022-09-15T07:19:17.763Z,20.86
2022-09-15T07:21:44.066Z,20.88
2022-09-15T07:24:10.567Z,20.91
2022-09-15T07:26:37.700Z,20.94
2022-09-15T07:29:06.777Z,20.95
2022-09-15T07:31:35.305Z,21.01
2022-09-15T07:34:02.147Z,21.05
2022-09-15T07:36:29.207Z,21.11
2022-09-15T07:38:55.538Z,21.13
2022-09-15T07:41:27.657Z,21.15
2022-09-15T07:43:56.212Z,21.18
2022-09-15T07:46:23.395Z,21.24
2022-09-15T07:48:53.313Z,21.32
2022-09-15T07:51:20.045Z,21.37
2022-09-15T07:53:47.919Z,21.39
2022-09-15T07:56:16.045Z,21.45
2022-09-15T07:58:42.344Z,21.48
2022-09-15T08:01:16.704Z,21.51
2022-09-15T08:03:46.153Z,21.54
2022-09-15T08:06:13.453Z,21.56
2022-09-15T08:08:40.906Z,21.58
2022-09-15T08:11:17.678Z,21.58
2022-09-15T08:13:49.545Z,21.62
2022-09-15T08:16:19.462Z,21.62
2022-09-15T08:18:46.263Z,21.65
2022-09-15T08:21:15.982Z,21.64
2022-09-15T08:23:43.386Z,21.67
2022-09-15T08:26:14.432Z,21.67
2022-09-15T08:28:41.831Z,21.69
2022-09-15T08:31:11.258Z,21.73
2022-09-15T08:33:41.838Z,21.76
2022-09-15T08:36:11.421Z,21.79
2022-09-15T08:38:43.664Z,21.80
2022-09-15T08:41:40.009Z,21.84
2022-09-15T08:44:55.373Z,21.91
2022-09-15T08:47:35.460Z,21.97
2022-09-15T08:50:11.639Z,22.03
2022-09-15T08:52:45.769Z,22.05
2022-09-15T08:55:26.215Z,22.09
2022-09-15T08:57:53.775Z,22.14
2022-09-15T09:00:20.215Z,22.17
2022-09-15T09:03:06.559Z,22.19
2022-09-15T09:05:47.522Z,22.27
2022-09-15T09:08:30.559Z,22.35
2022-09-15T09:11:20.146Z,22.43
2022-09-15T09:13:56.998Z,22.50
2022-09-15T09:16:54.865Z,22.50
2022-09-15T09:19:32.055Z,22.55
2022-09-15T09:22:23.607Z,22.52
2022-09-15T09:24:52.977Z,22.56
2022-09-15T09:27:24.197Z,22.55
2022-09-15T09:30:18.383Z,22.55
2022-09-15T09:33:00.328Z,22.62
2022-09-15T09:35:38.520Z,22.64
2022-09-15T09:38:05.016Z,22.69
2022-09-15T09:40:32.695Z,22.72
2022-09-15T09:43:00.646Z,22.74
2022-09-15T09:45:27.051Z,22.77
2022-09-15T09:48:01.647Z,22.79
2022-09-15T09:50:33.143Z,22.83
2022-09-15T09:52:59.665Z,22.90
2022-09-15T09:55:27.737Z,22.97
2022-09-15T09:58:11.126Z,23.06
2022-09-15T10:00:40.280Z,23.15
2022-09-15T10:03:30.623Z,23.20
2022-09-15T10:06:06.379Z,23.27
2022-09-15T10:08:35.049Z,23.34
2022-09-15T10:11:05.820Z,23.37
2022-09-15T10:13:35.541Z,23.40
2022-09-15T10:16:06.165Z,23.40
2022-09-15T10:18:38.721Z,23.42
2022-09-15T10:21:08.172Z,23.47
2022-09-15T10:23:34.697Z,23.49
2022-09-15T10:26:16.296Z,23.49
2022-09-15T10:28:43.813Z,23.53
2022-09-15T10:31:13.476Z,23.55
2022-09-15T10:33:50.640Z,23.56
2022-09-15T10:36:28.470Z,23.50
2022-09-15T10:39:14.377Z,23.46
2022-09-15T10:41:56.692Z,23.44
2022-09-15T10:44:35.037Z,23.39
2022-09-15T10:47:43.172Z,23.32
2022-09-15T10:50:15.613Z,23.32
2022-09-15T10:53:02.930Z,23.24
2022-09-15T10:55:52.740Z,23.18
2022-09-15T10:58:46.906Z,23.09
2022-09-15T11:01:37.730Z,22.99
2022-09-15T11:04:19.161Z,22.94
2022-09-15T11:07:21.793Z,22.84
2022-09-15T11:10:02.768Z,22.79
2022-09-15T11:12:55.092Z,22.73
2022-09-15T11:15:40.184Z,22.72
2022-09-15T11:18:21.128Z,22.68
2022-09-15T11:21:11.812Z,22.59
2022-09-15T11:23:52.662Z,22.56
2022-09-15T11:26:38.272Z,22.58
2022-09-15T11:29:18.390Z,22.57
2022-09-15T11:31:48.446Z,22.58
2022-09-15T11:34:35.914Z,22.57
2022-09-15T11:37:21.085Z,22.64
2022-09-15T11:39:50.991Z,22.72
2022-09-15T11:42:25.018Z,22.75
2022-09-15T11:44:51.668Z,22.81
2022-09-15T11:47:40.161Z,22.87
2022-09-15T11:50:29.162Z,22.93
2022-09-15T11:53:16.582Z,23.03
2022-09-15T11:55:55.859Z,23.09
2022-09-15T11:58:53.879Z,23.15
2022-09-15T12:01:27.571Z,23.25
2022-09-15T12:04:02.377Z,23.29
2022-09-15T12:06:46.289Z,23.28
2022-09-15T12:09:17.908Z,23.30
2022-09-15T12:11:47.561Z,23.31
2022-09-15T12:14:17.707Z,23.30
2022-09-15T12:16:44.894Z,23.31
2022-09-15T12:19:18.842Z,23.32
2022-09-15T12:22:00.714Z,23.38
2022-09-15T12:24:37.802Z,23.46
2022-09-15T12:27:04.721Z,23.56
2022-09-15T12:29:41.189Z,23.61
2022-09-15T12:32:19.910Z,23.66
2022-09-15T12:35:17.571Z,23.73
2022-09-15T12:37:58.116Z,23.78
2022-09-15T12:40:35.679Z,23.81
2022-09-15T12:43:11.278Z,23.84
2022-09-15T12:45:38.839Z,23.90
2022-09-15T12:48:19.884Z,23.92
2022-09-15T12:51:07.034Z,23.95
2022-09-15T12:53:50.240Z,23.97
2022-09-15T12:56:26.005Z,23.92
2022-09-15T12:58:53.727Z,23.90
2022-09-15T13:01:23.066Z,23.83
2022-09-15T13:03:49.498Z,23.78
2022-09-15T13:06:29.007Z,23.67
2022-09-15T13:09:01.488Z,23.62
2022-09-15T13:11:37.403Z,23.58
2022-09-15T13:14:03.989Z,23.62
2022-09-15T13:16:32.642Z,23.64
2022-09-15T13:19:20.684Z,23.63
2022-09-15T13:22:00.246Z,23.67
2022-09-15T13:24:41.619Z,23.70
2022-09-15T13:27:08.911Z,23.74
2022-09-15T13:29:45.575Z,23.74
2022-09-15T13:32:20.929Z,23.77
2022-09-15T13:35:16.006Z,23.82
2022-09-15T13:38:13.555Z,23.90
2022-09-15T13:41:03.546Z,23.93
2022-09-15T13:43:59.686Z,23.98
2022-09-15T13:46:53.345Z,24.02
2022-09-15T13:49:28.715Z,24.08
2022-09-15T13:52:18.391Z,24.09
2022-09-15T13:55:07.660Z,24.12
2022-09-15T14:00:45.315Z,24.11
2022-09-15T14:03:17.251Z,24.14
2022-09-15T14:05:45.309Z,24.16
2022-09-15T14:08:17.447Z,24.15
2022-09-15T14:10:56.538Z,24.14
2022-09-15T14:13:26.564Z,24.16
2022-09-15T14:15:57.771Z,24.15
2022-09-15T14:18:24.394Z,24.15
2022-09-15T14:21:05.812Z,24.11
2022-09-15T14:23:32.782Z,24.13
2022-09-15T14:26:01.267Z,24.12
2022-09-15T14:28:33.671Z,24.11
2022-09-15T14:31:00.757Z,24.10
2022-09-15T14:33:39.150Z,24.08
2022-09-15T14:36:24.232Z,24.15
2022-09-15T14:39:08.718Z,24.16
2022-09-15T14:41:36.505Z,24.20
2022-09-15T14:45:55.118Z,24.15
2022-09-15T14:47:20.173Z,24.14
2022-09-15T14:49:46.950Z,24.18
2022-09-15T14:52:27.085Z,24.14
2022-09-15T14:55:00.511Z,24.18
2022-09-15T14:57:31.499Z,24.18
2022-09-15T15:00:03.423Z,24.16
2022-09-15T15:02:50.112Z,24.10
2022-09-15T15:05:24.688Z,24.10
2022-09-15T15:07:51.987Z,24.09
2022-09-15T15:10:25.858Z,24.03
2022-09-15T15:13:15.502Z,24.02
2022-09-15T15:15:42.554Z,24.00
2022-09-15T15:18:38.047Z,23.90
2022-09-15T15:21:05.408Z,23.89
2022-09-15T15:23:32.644Z,23.83
2022-09-15T15:26:35.548Z,23.72
2022-09-15T15:29:01.944Z,23.70
2022-09-15T15:31:29.558Z,23.65
2022-09-15T15:34:05.131Z,23.60
2022-09-15T15:36:34.125Z,23.56
2022-09-15T15:39:04.570Z,23.53
2022-09-15T15:41:38.585Z,23.48
2022-09-15T15:44:22.342Z,23.46
2022-09-15T15:47:00.094Z,23.46
2022-09-15T15:49:29.163Z,23.43
2022-09-15T15:51:56.956Z,23.39
2022-09-15T15:54:24.239Z,23.34
2022-09-15T15:56:51.762Z,23.32
2022-09-15T15:59:19.006Z,23.30
2022-09-15T16:01:50.891Z,23.27
2022-09-15T16:04:17.278Z,23.25
2022-09-15T16:06:44.839Z,23.24
2022-09-15T16:09:14.592Z,23.23
2022-09-15T16:11:42.581Z,23.23
2022-09-15T16:14:12.056Z,23.22
2022-09-15T16:16:38.397Z,23.22
2022-09-15T16:19:04.735Z,23.22
2022-09-15T16:21:39.401Z,23.18
2022-09-15T16:24:11.057Z,23.19
2022-09-15T16:26:39.236Z,23.16
2022-09-15T16:29:06.116Z,23.13
2022-09-15T16:31:33.596Z,23.11
2022-09-15T16:34:00.038Z,23.08
2022-09-15T16:36:26.999Z,23.05
2022-09-15T16:38:53.650Z,23.02
2022-09-15T16:41:25.639Z,22.99
2022-09-15T16:43:58.314Z,22.98
2022-09-15T16:46:25.081Z,22.95
2022-09-15T16:48:51.631Z,22.93
2022-09-15T16:51:28.849Z,22.90
2022-09-15T16:53:57.078Z,22.88
2022-09-15T16:56:23.376Z,22.88
2022-09-15T16:58:49.725Z,22.86
2022-09-15T17:01:21.142Z,22.83
2022-09-15T17:03:48.405Z,22.84
2022-09-15T17:06:17.619Z,22.82
2022-09-15T17:08:44.420Z,22.80
2022-09-15T17:11:16.533Z,22.78
2022-09-15T17:13:44.154Z,22.78
2022-09-15T17:16:12.315Z,22.76
2022-09-15T17:18:38.624Z,22.75
2022-09-15T17:21:05.026Z,22.73
2022-09-15T17:23:35.084Z,22.70
2022-09-15T17:26:05.134Z,22.67
2022-09-15T17:28:33.736Z,22.65
2022-09-15T17:31:01.143Z,22.61
2022-09-15T17:33:29.174Z,22.58
2022-09-15T17:35:56.061Z,22.54
2022-09-15T17:38:22.829Z,22.48
2022-09-15T17:40:50.857Z,22.42
2022-09-15T17:43:22.528Z,22.37
2022-09-15T17:45:49.915Z,22.36
2022-09-15T17:48:16.723Z,22.30
2022-09-15T17:50:45.002Z,22.26
2022-09-15T17:53:22.762Z,22.20
2022-09-15T17:55:50.529Z,22.17
2022-09-15T17:58:17.962Z,22.14
2022-09-15T18:00:45.240Z,22.10
2022-09-15T18:03:23.225Z,22.04
2022-09-15T18:05:50.665Z,22.03
2022-09-15T18:08:17.354Z,22.00
2022-09-15T18:10:44.221Z,21.97
2022-09-15T18:13:16.213Z,21.94
2022-09-15T18:15:43.038Z,21.92
2022-09-15T18:18:14.863Z,21.90
2022-09-15T18:20:41.306Z,21.89
2022-09-15T18:23:12.735Z,21.86
2022-09-15T18:25:39.104Z,21.85
2022-09-15T18:28:05.567Z,21.84
2022-09-15T18:30:37.045Z,21.81
2022-09-15T18:33:03.742Z,21.81
2022-09-15T18:35:30.195Z,21.80
2022-09-15T18:37:59.482Z,21.80
2022-09-15T18:40:27.342Z,21.82
2022-09-15T18:42:54.140Z,21.81
2022-09-15T18:45:20.481Z,21.79
2022-09-15T18:47:49.010Z,21.78
2022-09-15T18:50:16.507Z,21.79
2022-09-15T18:52:42.899Z,21.80
2022-09-15T18:55:13.019Z,21.76
2022-09-15T18:57:41.472Z,21.72
2022-09-15T19:00:11.842Z,21.66
2022-09-15T19:02:38.201Z,21.61
2022-09-15T19:05:05.572Z,21.58
2022-09-15T19:07:32.000Z,21.53
2022-09-15T19:09:58.886Z,21.48
2022-09-15T19:12:25.179Z,21.45
2022-09-15T19:14:51.512Z,21.42
2022-09-15T19:17:17.828Z,21.41
2022-09-15T19:19:46.211Z,21.40
2022-09-15T19:22:12.564Z,21.38
2022-09-15T19:24:38.882Z,21.37
2022-09-15T19:27:06.924Z,21.35
2022-09-15T19:29:35.626Z,21.35
2022-09-15T19:32:03.061Z,21.36
2022-09-15T19:34:29.394Z,21.41
2022-09-15T19:36:55.766Z,21.40
2022-09-15T19:39:22.465Z,21.40
2022-09-15T19:41:48.966Z,21.38
2022-09-15T19:44:16.041Z,21.39
2022-09-15T19:46:42.469Z,21.38
2022-09-15T19:49:09.794Z,21.38
2022-09-15T19:51:36.245Z,21.38
2022-09-15T19:54:02.636Z,21.38
2022-09-15T19:56:29.563Z,21.35
2022-09-15T19:58:57.792Z,21.34
2022-09-15T20:01:26.308Z,21.34
2022-09-15T20:03:54.507Z,21.33
2022-09-15T20:06:20.805Z,21.32
2022-09-15T20:08:47.694Z,21.30
2022-09-15T20:11:15.457Z,21.28
2022-09-15T20:13:43.440Z,21.28
2022-09-15T20:16:16.357Z,21.27
2022-09-15T20:18:42.932Z,21.28
2022-09-15T20:21:12.368Z,21.25
2022-09-15T20:23:48.533Z,21.26
2022-09-15T20:26:17.102Z,21.25
2022-09-15T20:28:43.788Z,21.25
2022-09-15T20:31:13.710Z,21.27
2022-09-15T20:33:42.070Z,21.25
2022-09-15T20:36:11.273Z,21.24
2022-09-15T20:38:38.981Z,21.25
2022-09-15T20:41:08.131Z,21.23
2022-09-15T20:43:39.703Z,21.21
2022-09-15T20:46:08.789Z,21.21
2022-09-15T20:48:38.498Z,21.19
2022-09-15T20:51:17.766Z,21.14
2022-09-15T20:53:46.463Z,21.15
2022-09-15T20:56:14.466Z,21.12
2022-09-15T20:58:41.509Z,21.10
2022-09-15T21:01:10.472Z,21.06
2022-09-15T21:03:39.012Z,21.03
2022-09-15T21:06:08.207Z,20.98
2022-09-15T21:08:36.286Z,20.96
2022-09-15T21:11:04.949Z,20.93
2022-09-15T21:13:32.145Z,20.93
2022-09-15T21:16:02.112Z,20.94
2022-09-15T21:18:34.531Z,20.92
2022-09-15T21:21:03.403Z,20.89
2022-09-15T21:23:37.741Z,20.85
2022-09-15T21:26:07.096Z,20.83
2022-09-15T21:28:33.876Z,20.82
2022-09-15T21:31:08.349Z,20.76
2022-09-15T21:33:36.118Z,20.77
2022-09-15T21:36:07.121Z,20.72
2022-09-15T21:38:38.053Z,20.70
2022-09-15T21:41:06.024Z,20.69
2022-09-15T21:43:35.780Z,20.65
2022-09-15T21:46:08.344Z,20.62
2022-09-15T21:48:35.415Z,20.58
2022-09-15T21:51:02.974Z,20.54
2022-09-15T21:53:29.590Z,20.53
2022-09-15T21:55:56.576Z,20.51
2022-09-15T21:58:26.149Z,20.49
2022-09-15T22:00:53.055Z,20.48
2022-09-15T22:03:19.457Z,20.47
2022-09-15T22:05:47.471Z,20.45
2022-09-15T22:08:16.117Z,20.46
2022-09-15T22:10:43.969Z,20.46
2022-09-15T22:13:11.348Z,20.45
2022-09-15T22:15:37.911Z,20.44
2022-09-15T22:18:04.496Z,20.42
2022-09-15T22:20:30.962Z,20.42
2022-09-15T22:23:00.557Z,20.40
2022-09-15T22:25:27.014Z,20.39
2022-09-15T22:27:53.317Z,20.39
2022-09-15T22:30:19.609Z,20.39
2022-09-15T22:32:45.938Z,20.38
2022-09-15T22:35:12.294Z,20.37
2022-09-15T22:37:38.601Z,20.37
2022-09-15T22:40:05.416Z,20.35
2022-09-15T22:42:31.746Z,20.34
2022-09-15T22:44:58.025Z,20.33
2022-09-15T22:47:24.308Z,20.32
2022-09-15T22:49:50.592Z,20.32
2022-09-15T22:52:16.943Z,20.31
2022-09-15T22:54:43.234Z,20.30
2022-09-15T22:57:09.566Z,20.28
2022-09-15T22:59:35.850Z,20.25
2022-09-15T23:02:02.232Z,20.23
2022-09-15T23:04:28.722Z,20.20
2022-09-15T23:06:55.081Z,20.20
2022-09-15T23:09:21.391Z,20.17
2022-09-15T23:11:47.691Z,20.17
2022-09-15T23:14:16.057Z,20.16
2022-09-15T23:16:42.959Z,20.16
2022-09-15T23:19:12.094Z,20.13
2022-09-15T23:21:38.413Z,20.12
2022-09-15T23:24:04.994Z,20.11
2022-09-15T23:26:31.371Z,20.09
2022-09-15T23:28:57.657Z,20.10
2022-09-15T23:31:24.094Z,20.08
2022-09-15T23:33:50.534Z,20.07
2022-09-15T23:36:19.410Z,20.04
2022-09-15T23:38:47.117Z,20.04
2022-09-15T23:43:40.630Z,20.01
2022-09-15T23:46:07.729Z,19.99
2022-09-15T23:48:34.055Z,19.97
2022-09-15T23:51:00.635Z,19.97
2022-09-15T23:53:27.118Z,19.96
2022-09-15T23:55:53.410Z,19.96
2022-09-15T23:58:19.723Z,19.97
